MST,Max TemperatureF,Mean TemperatureF,Min TemperatureF,Max Dew PointF,MeanDew PointF,Min DewpointF,Max Humidity, Mean Humidity, Min Humidity, Max Sea Level PressureIn, Mean Sea Level PressureIn, Min Sea Level PressureIn, Max VisibilityMiles, Mean VisibilityMiles, Min VisibilityMiles, Max Wind SpeedMPH, Mean Wind SpeedMPH, Max Gust SpeedMPH,PrecipitationIn, CloudCover, Events, WindDirDegrees
2012-1-1,52,35,18,22,17,14,84,55,26,30.63,30.48,30.33,10,10,10,12,3,14,0.00,0,,54
2012-1-2,50,35,20,21,18,15,84,56,27,30.63,30.51,30.39,10,10,10,13,4,16,0.00,0,,55
2012-1-3,58,39,19,26,16,8,91,53,14,30.53,30.42,30.31,10,10,10,10,2,15,0.00,0,,273
2012-1-4,52,37,21,19,14,10,81,50,19,30.51,30.43,30.35,10,10,6,22,8,30,0.00,0,,69
2012-1-5,56,36,15,21,16,7,88,51,14,30.49,30.29,29.60,10,10,10,14,3,15,0.00,0,,221
2012-1-6,59,40,21,24,18,15,77,48,19,30.16,30.07,29.98,10,10,10,12,2,14,0.00,0,,228
2012-1-7,47,35,23,23,19,11,88,59,30,30.04,29.95,29.86,10,10,10,22,8,31,0.00,2,,238
2012-1-8,38,33,27,21,10,2,78,53,28,30.17,30.05,29.92,10,10,10,31,15,43,0.00,0,,35
2012-1-9,48,36,23,18,12,6,74,48,22,30.31,30.23,30.14,10,10,10,24,8,32,0.00,0,,72
2012-1-10,56,37,18,25,19,15,84,55,26,30.30,30.16,30.01,10,10,10,15,3,18,0.00,0,,234
2012-1-11,51,38,24,20,11,-1,74,47,19,30.13,30.04,29.96,10,10,10,16,6,21,0.00,0,,86
2012-1-12,38,31,23,0,-4,-8,38,27,15,30.18,30.13,30.04,10,10,10,23,10,30,0.00,0,,74
2012-1-13,46,32,17,8,-4,-14,67,39,11,30.39,30.28,30.16,10,10,10,20,7,26,0.00,0,,67
2012-1-14,51,32,13,14,8,-2,76,45,14,30.47,30.32,30.17,10,10,10,12,2,17,0.00,0,,84
2012-1-15,43,35,26,29,18,8,78,53,27,30.17,30.07,29.98,10,8,1,30,11,36,0.02,6,Snow,226
2012-1-16,35,32,29,30,29,26,100,85,70,30.07,29.98,29.85,10,5,0,29,16,35,0.23,7,Fog-Snow,231
2012-1-17,38,31,23,28,25,22,100,76,52,30.30,30.19,30.08,10,10,10,18,6,22,0.00,3,,254
2012-1-18,45,32,18,25,20,14,100,64,28,30.36,30.26,30.17,10,9,5,17,6,20,0.00,1,,249
2012-1-19,54,39,24,25,21,15,75,50,24,30.20,30.06,29.94,10,10,8,15,7,20,0.00,0,,233
2012-1-20,57,40,23,20,17,8,81,49,16,30.13,30.03,29.94,10,10,10,14,4,17,0.00,0,,232
2012-1-21,39,32,25,31,24,14,89,66,43,29.98,29.82,29.61,10,6,0,39,16,51,0.14,6,Fog-Rain-Snow,240
2012-1-22,38,29,19,21,13,-2,81,54,27,30.16,30.04,29.90,10,10,10,14,5,24,0.00,2,,259
2012-1-23,35,26,17,27,20,10,92,64,35,30.12,29.96,29.86,10,6,1,24,8,31,0.03,6,Snow,236
2012-1-24,38,26,13,25,19,11,92,66,40,30.23,30.03,29.86,10,10,10,30,13,39,0.00,1,,52
2012-1-25,51,40,28,21,15,3,69,48,26,30.25,30.20,30.14,10,10,10,33,18,43,0.00,0,,65
2012-1-26,55,39,23,25,21,18,75,52,28,30.28,30.13,29.99,10,10,10,20,4,23,0.00,0,,228
2012-1-27,44,36,28,29,18,-5,85,55,24,30.20,30.09,29.95,10,10,6,25,11,30,0.00,0,,66
2012-1-28,43,35,26,6,1,-6,33,24,15,30.44,30.34,30.20,10,10,10,22,13,32,0.00,0,,70
2012-1-29,51,34,16,12,6,-1,67,40,13,30.49,30.34,30.21,10,10,10,15,3,20,0.00,0,,75
2012-1-30,49,33,16,19,15,7,74,50,26,30.21,30.10,30.01,10,10,10,20,6,25,0.00,0,,223
2012-1-31,49,37,24,22,17,11,81,52,23,30.22,30.09,29.98,10,10,10,17,3,22,0.00,3,,237